createdAt,value
2022-12-16T08:27:51.803Z,81.06
2022-12-16T08:46:51.591Z,77.03
2022-12-16T08:53:53.514Z,76.50
2022-12-16T09:06:51.370Z,71.62
2022-12-16T09:07:51.360Z,70.41
2022-12-16T09:08:51.349Z,69.43
2022-12-16T09:09:51.341Z,68.84
2022-12-16T09:10:53.329Z,68.42
2022-12-16T09:11:51.314Z,68.45
2022-12-16T09:12:51.302Z,68.56
2022-12-16T09:13:51.292Z,68.38
2022-12-16T09:14:53.280Z,68.59
2022-12-16T09:15:53.331Z,69.04
2022-12-16T09:16:51.258Z,69.56
2022-12-16T09:17:51.253Z,69.77
2022-12-16T09:18:51.236Z,69.77
2022-12-16T09:45:51.011Z,71.13
2022-12-16T09:46:53.021Z,70.92
2022-12-16T09:47:50.909Z,70.92
2022-12-16T09:48:50.901Z,70.30
2022-12-16T09:49:50.885Z,70.30
2022-12-16T09:50:50.879Z,70.30
2022-12-16T09:54:50.838Z,70.92
2022-12-16T09:55:50.821Z,71.03
2022-12-16T09:56:50.809Z,70.61
2022-12-16T09:57:51.635Z,70.40
2022-12-16T09:58:50.785Z,70.78
2022-12-16T09:59:50.779Z,71.00
2022-12-16T10:00:50.765Z,70.68
2022-12-16T10:01:50.917Z,69.95
2022-12-16T10:02:50.876Z,70.09
2022-12-16T10:03:50.784Z,70.50
2022-12-16T10:04:52.716Z,70.47
2022-12-16T10:05:50.708Z,70.58
2022-12-16T10:06:50.695Z,70.68
2022-12-16T10:07:50.711Z,70.75
2022-12-16T10:08:50.678Z,70.02
2022-12-16T10:09:50.663Z,69.92
2022-12-16T10:10:50.653Z,69.61
2022-12-16T10:11:50.640Z,69.47
2022-12-16T10:12:52.732Z,69.47
2022-12-16T10:13:52.617Z,69.05
2022-12-16T10:14:52.605Z,68.60
2022-12-16T10:15:50.666Z,68.15
2022-12-16T10:16:50.583Z,67.95
2022-12-16T10:17:50.576Z,68.26
2022-12-16T10:18:50.622Z,68.46
2022-12-16T10:19:50.570Z,68.57
2022-12-16T10:20:50.539Z,68.05
2022-12-16T10:21:50.534Z,67.63
2022-12-16T10:22:50.520Z,67.63
2022-12-16T10:23:50.534Z,67.84
2022-12-16T10:24:50.497Z,67.73
2022-12-16T10:25:50.486Z,68.08
2022-12-16T10:26:50.473Z,68.39
2022-12-16T10:27:50.471Z,68.49
2022-12-16T10:28:50.453Z,68.63
2022-12-16T10:29:50.442Z,69.33
2022-12-16T10:30:50.517Z,69.33
2022-12-16T10:31:50.496Z,69.40
2022-12-16T10:32:50.408Z,69.37
2022-12-16T10:33:50.400Z,69.37
2022-12-16T10:34:50.394Z,68.71
2022-12-16T10:35:50.377Z,67.99
2022-12-16T10:36:50.363Z,67.57
2022-12-16T10:37:50.352Z,67.57
2022-12-16T10:38:50.339Z,67.36
2022-12-16T10:39:50.357Z,67.15
2022-12-16T10:40:50.321Z,67.74
2022-12-16T10:41:50.306Z,67.43
2022-12-16T10:42:50.294Z,66.71
2022-12-16T10:43:50.288Z,67.02
2022-12-16T10:44:50.278Z,67.06
2022-12-16T10:45:50.275Z,66.47
2022-12-16T10:46:50.340Z,65.23
2022-12-16T10:47:50.244Z,65.23
2022-12-16T10:48:56.676Z,64.71
2022-12-16T10:49:54.848Z,64.50
2022-12-16T10:50:50.205Z,64.95
2022-12-16T10:51:50.194Z,65.36
2022-12-16T10:52:50.187Z,65.36
2022-12-16T10:53:50.169Z,65.16
2022-12-16T10:54:50.159Z,65.78
2022-12-16T10:55:50.233Z,65.67
2022-12-16T10:56:50.147Z,65.85
2022-12-16T10:57:50.124Z,65.44
2022-12-16T10:58:50.115Z,64.92
2022-12-16T10:59:50.107Z,64.84
2022-12-16T11:00:50.096Z,65.26
2022-12-16T11:01:50.277Z,65.26
2022-12-16T11:02:50.440Z,65.29
2022-12-16T11:03:50.197Z,65.50
2022-12-16T11:04:50.044Z,66.02
2022-12-16T11:05:50.032Z,66.12
2022-12-16T11:06:50.020Z,65.94
2022-12-16T11:07:50.010Z,66.15
2022-12-16T11:08:50.000Z,66.25
2022-12-16T11:09:49.987Z,66.25
2022-12-16T11:10:49.978Z,66.57
2022-12-16T11:11:50.005Z,66.46
2022-12-16T11:12:49.962Z,66.36
2022-12-16T11:13:49.941Z,66.39
2022-12-16T11:15:12.622Z,66.71
2022-12-16T11:15:49.968Z,66.81
2022-12-16T11:16:50.018Z,66.94
2022-12-16T11:17:49.899Z,67.36
2022-12-16T11:18:49.884Z,67.57
2022-12-16T11:19:49.872Z,68.09
2022-12-16T11:20:49.862Z,68.37
2022-12-16T11:21:49.849Z,68.06
2022-12-16T11:22:49.838Z,67.64
2022-12-16T11:23:49.828Z,67.43
2022-12-16T11:24:49.817Z,67.88
2022-12-16T11:25:49.810Z,68.20
2022-12-16T11:26:49.801Z,68.71
2022-12-16T11:27:49.836Z,68.48
2022-12-16T11:28:49.776Z,68.58
2022-12-16T11:29:49.761Z,68.58
2022-12-16T11:30:49.827Z,68.79
2022-12-16T11:31:49.795Z,68.68
2022-12-16T11:32:49.729Z,68.68
2022-12-16T11:33:49.713Z,68.58
2022-12-16T11:34:49.701Z,68.37
2022-12-16T11:35:49.717Z,68.06
2022-12-16T11:36:49.678Z,68.06
2022-12-16T11:37:49.669Z,68.17
2022-12-16T11:38:49.655Z,68.68
2022-12-16T11:39:49.644Z,69.00
2022-12-16T11:40:49.646Z,69.17
2022-12-16T11:41:49.628Z,68.86
2022-12-16T11:42:49.611Z,68.96
2022-12-16T11:43:49.663Z,69.07
2022-12-16T11:44:49.589Z,68.13
2022-12-16T11:45:49.577Z,67.82
2022-12-16T11:46:49.681Z,68.17
2022-12-16T11:47:49.553Z,68.48
2022-12-16T11:48:49.549Z,68.68
2022-12-16T11:49:49.535Z,69.10
2022-12-16T11:50:49.521Z,69.42
2022-12-16T11:51:49.508Z,69.73
2022-12-16T11:52:49.507Z,69.83
2022-12-16T11:53:49.488Z,69.65
2022-12-16T11:54:49.475Z,69.76
2022-12-16T11:56:05.868Z,69.73
2022-12-16T11:56:49.543Z,69.94
2022-12-16T11:57:49.441Z,70.14
2022-12-16T11:58:49.430Z,70.04
2022-12-16T11:59:49.458Z,69.83
2022-12-16T12:00:49.409Z,69.94
2022-12-16T12:01:49.450Z,70.04
2022-12-16T12:02:49.443Z,70.14
2022-12-16T12:03:49.505Z,70.14
2022-12-16T12:04:49.382Z,70.28
2022-12-16T12:05:49.352Z,70.59
2022-12-16T12:06:49.345Z,71.01
2022-12-16T12:07:49.331Z,70.88
2022-12-16T12:08:49.320Z,70.66
2022-12-16T12:09:49.310Z,70.91
2022-12-16T12:10:49.299Z,71.01
2022-12-16T12:11:49.286Z,71.11
2022-12-16T12:12:49.277Z,71.32
2022-12-16T12:13:49.263Z,71.42
2022-12-16T12:14:49.253Z,71.53
2022-12-16T12:15:49.328Z,71.36
2022-12-16T12:16:49.311Z,71.14
2022-12-16T12:17:49.216Z,71.25
2022-12-16T12:18:49.206Z,71.36
2022-12-16T12:19:49.199Z,71.77
2022-12-16T12:20:49.185Z,71.77
2022-12-16T12:21:49.177Z,71.56
2022-12-16T12:22:49.168Z,71.36
2022-12-16T12:23:49.151Z,71.46
2022-12-16T12:24:53.556Z,71.67
2022-12-16T12:25:49.127Z,72.02
2022-12-16T12:26:49.115Z,72.19
2022-12-16T12:27:49.104Z,71.98
2022-12-16T12:28:49.114Z,72.08
2022-12-16T12:29:49.090Z,72.08
2022-12-16T12:30:49.071Z,72.19
2022-12-16T12:31:49.224Z,72.50
2022-12-16T12:32:49.056Z,72.40
2022-12-16T12:33:49.037Z,71.98
2022-12-16T12:34:49.029Z,71.77
2022-12-16T12:35:49.016Z,71.67
2022-12-16T12:36:49.006Z,71.77
2022-12-16T12:37:48.993Z,71.88
2022-12-16T12:38:48.987Z,71.67
2022-12-16T12:39:48.980Z,71.56
2022-12-16T12:40:48.966Z,71.56
2022-12-16T12:41:48.954Z,71.98
2022-12-16T12:42:49.870Z,71.85
2022-12-16T12:43:48.925Z,71.56
2022-12-16T12:44:49.460Z,71.56
2022-12-16T12:45:48.906Z,71.36
2022-12-16T12:46:49.013Z,71.25
2022-12-16T12:47:48.931Z,71.25
2022-12-16T12:48:51.829Z,71.46
2022-12-16T12:49:48.860Z,71.77
2022-12-16T12:50:48.849Z,71.88
2022-12-16T12:51:48.839Z,72.29
2022-12-16T12:52:48.900Z,72.29
2022-12-16T12:53:48.813Z,71.98
2022-12-16T12:54:48.802Z,71.88
2022-12-16T12:55:48.790Z,72.19
2022-12-16T12:56:48.779Z,72.19
2022-12-16T12:57:48.771Z,72.19
2022-12-16T12:58:48.764Z,71.98
2022-12-16T12:59:48.745Z,71.88
2022-12-16T13:00:48.760Z,71.98
2022-12-16T13:01:49.110Z,72.40
2022-12-16T13:02:48.855Z,72.50
2022-12-16T13:03:48.873Z,72.82
2022-12-16T13:04:48.685Z,72.71
2022-12-16T13:05:48.681Z,72.61
2022-12-16T13:06:48.665Z,72.54
2022-12-16T13:07:48.655Z,72.85
2022-12-16T13:08:48.651Z,73.27
2022-12-16T13:09:48.633Z,73.33
2022-12-16T13:10:48.621Z,73.44
2022-12-16T13:11:48.615Z,73.44
2022-12-16T13:12:48.716Z,73.55
2022-12-16T13:13:48.588Z,73.76
2022-12-16T13:14:48.578Z,73.65
2022-12-16T13:15:48.573Z,73.37
2022-12-16T13:16:48.590Z,73.48
2022-12-16T13:17:48.628Z,73.58
2022-12-16T13:18:48.537Z,73.68
2022-12-16T13:19:48.552Z,73.79
2022-12-16T13:20:48.509Z,73.89
2022-12-16T13:21:48.499Z,74.10
2022-12-16T13:22:48.489Z,74.31
2022-12-16T13:23:48.478Z,74.24
2022-12-16T13:24:48.464Z,74.45
2022-12-16T13:25:48.463Z,74.62
2022-12-16T13:26:48.441Z,74.56
2022-12-16T13:27:48.431Z,74.56
2022-12-16T13:28:50.421Z,74.73
2022-12-16T13:29:48.412Z,74.56
2022-12-16T13:30:48.402Z,74.66
2022-12-16T13:31:48.414Z,74.87
2022-12-16T13:32:48.377Z,75.18
2022-12-16T13:33:48.363Z,75.18
2022-12-16T13:34:48.353Z,74.97
2022-12-16T13:35:50.370Z,75.07
2022-12-16T13:36:48.331Z,75.01
2022-12-16T13:37:48.322Z,75.21
2022-12-16T13:38:48.308Z,75.28
2022-12-16T13:39:48.294Z,75.50
2022-12-16T13:40:48.284Z,75.50
2022-12-16T13:41:48.278Z,75.36
2022-12-16T13:42:48.261Z,75.36
2022-12-16T13:43:48.252Z,75.25
2022-12-16T13:44:48.242Z,75.15
2022-12-16T13:45:48.281Z,74.93
2022-12-16T13:46:48.218Z,74.62
2022-12-16T13:47:48.204Z,74.76
2022-12-16T13:48:48.218Z,74.97
2022-12-16T13:49:48.202Z,75.18
2022-12-16T13:50:48.176Z,75.28
2022-12-16T13:51:48.220Z,75.39
2022-12-16T13:52:48.148Z,75.28
2022-12-16T13:53:48.138Z,75.07
2022-12-16T13:54:48.129Z,75.07
2022-12-16T13:55:48.119Z,75.18
2022-12-16T13:56:48.107Z,75.18
2022-12-16T13:57:50.099Z,75.28
2022-12-16T13:58:48.124Z,75.18
2022-12-16T13:59:48.070Z,74.97
2022-12-16T14:00:48.203Z,74.97
2022-12-16T14:01:48.229Z,75.32
2022-12-16T14:02:48.203Z,75.42
2022-12-16T14:03:48.127Z,75.53
2022-12-16T14:04:48.011Z,75.87
2022-12-16T14:05:50.006Z,76.19
2022-12-16T14:06:47.996Z,76.40
2022-12-16T14:07:48.000Z,76.40
2022-12-16T14:08:47.970Z,76.50
2022-12-16T14:09:47.954Z,76.40
2022-12-16T14:10:47.942Z,76.40
2022-12-16T14:11:47.931Z,76.40
2022-12-16T14:12:49.575Z,76.47
2022-12-16T14:13:47.909Z,76.36
2022-12-16T14:14:47.898Z,76.36
2022-12-16T14:15:47.889Z,76.26
2022-12-16T14:16:48.013Z,76.15
2022-12-16T14:17:47.966Z,76.15
2022-12-16T14:18:47.861Z,76.05
2022-12-16T14:19:47.849Z,76.05
2022-12-16T14:20:47.835Z,75.91
2022-12-16T14:21:47.821Z,75.91
2022-12-16T14:22:47.809Z,76.05
2022-12-16T14:23:56.281Z,76.05
2022-12-16T14:24:47.788Z,76.05
2022-12-16T14:25:47.775Z,75.84
2022-12-16T14:26:47.763Z,75.73
2022-12-16T14:27:47.754Z,75.84
2022-12-16T14:28:47.742Z,75.95
2022-12-16T14:29:47.735Z,76.05
2022-12-16T14:30:47.718Z,76.05
2022-12-16T14:31:52.852Z,76.15
2022-12-16T14:32:47.704Z,76.36
2022-12-16T14:33:47.692Z,76.50
2022-12-16T14:34:47.677Z,76.61
2022-12-16T14:35:47.660Z,76.61
2022-12-16T14:36:47.648Z,76.61
2022-12-16T14:37:47.637Z,76.71
2022-12-16T14:38:47.627Z,76.78
2022-12-16T14:39:47.642Z,76.68
2022-12-16T14:40:47.602Z,76.57
2022-12-16T14:41:47.593Z,76.36
2022-12-16T14:42:47.580Z,76.26
2022-12-16T14:43:47.570Z,76.15
2022-12-16T14:44:47.559Z,75.95
2022-12-16T14:45:47.621Z,75.98
2022-12-16T14:46:47.535Z,75.95
2022-12-16T14:47:53.539Z,75.98
2022-12-16T14:48:49.780Z,75.98
2022-12-16T14:49:47.503Z,75.98
2022-12-16T14:50:47.491Z,76.09
2022-12-16T14:51:47.481Z,76.09
2022-12-16T14:52:47.466Z,76.09
2022-12-16T14:53:47.456Z,75.98
2022-12-16T14:54:47.445Z,75.73
2022-12-16T14:55:47.456Z,75.42
2022-12-16T14:56:47.422Z,75.25
2022-12-16T14:57:47.412Z,75.14
2022-12-16T14:58:47.399Z,75.25
2022-12-16T14:59:47.387Z,75.36
2022-12-16T15:00:47.419Z,75.49
2022-12-16T15:01:47.487Z,75.70
2022-12-16T15:02:47.724Z,75.91
2022-12-16T15:03:47.631Z,76.01
2022-12-16T15:04:47.614Z,76.12
2022-12-16T15:05:47.322Z,76.22
2022-12-16T15:06:47.310Z,76.33
2022-12-16T15:07:47.297Z,76.44
2022-12-16T15:08:47.291Z,76.33
2022-12-16T15:09:47.281Z,76.40
2022-12-16T15:10:47.265Z,76.19
2022-12-16T15:11:47.302Z,76.19
2022-12-16T15:12:47.239Z,76.09
2022-12-16T15:14:47.219Z,75.67
2022-12-16T15:15:47.211Z,75.70
2022-12-16T15:16:47.257Z,75.81
2022-12-16T15:20:47.149Z,76.22
2022-12-16T15:21:47.141Z,76.33
2022-12-16T15:22:47.128Z,76.33
2022-12-16T15:23:53.129Z,76.33
